sensor_id;sensor_type;location;lat;lon;timestamp;P1;durP1;ratioP1;P2;durP2;ratioP2
3415;SDS011;1721;51.238;9.562;2023-08-01T00:01:49;5.90;;;2.30;;
3415;SDS011;1721;51.238;9.562;2023-08-01T00:04:14;7.77;;;2.23;;
3415;SDS011;1721;51.238;9.562;2023-08-01T00:06:41;9.00;;;2.83;;
3415;SDS011;1721;51.238;9.562;2023-08-01T00:09:06;7.57;;;1.87;;
3415;SDS011;1721;51.238;9.562;2023-08-01T00:11:32;5.73;;;1.90;;
3415;SDS011;1721;51.238;9.562;2023-08-01T00:13:57;5.00;;;1.60;;
3415;SDS011;1721;51.238;9.562;2023-08-01T00:16:23;4.57;;;1.73;;
3415;SDS011;1721;51.238;9.562;2023-08-01T00:18:49;4.30;;;1.50;;
3415;SDS011;1721;51.238;9.562;2023-08-01T00:21:14;7.40;;;1.60;;
3415;SDS011;1721;51.238;9.562;2023-08-01T00:23:40;6.63;;;2.00;;
3415;SDS011;1721;51.238;9.562;2023-08-01T00:26:06;4.13;;;1.30;;
3415;SDS011;1721;51.238;9.562;2023-08-01T00:28:31;4.80;;;1.80;;
3415;SDS011;1721;51.238;9.562;2023-08-01T00:31:07;4.90;;;1.57;;
3415;SDS011;1721;51.238;9.562;2023-08-01T00:33:35;4.45;;;1.73;;
3415;SDS011;1721;51.238;9.562;2023-08-01T00:36:01;4.40;;;1.47;;
3415;SDS011;1721;51.238;9.562;2023-08-01T00:38:27;4.03;;;1.53;;
3415;SDS011;1721;51.238;9.562;2023-08-01T00:40:53;5.37;;;1.80;;
3415;SDS011;1721;51.238;9.562;2023-08-01T00:43:19;3.37;;;1.10;;
3415;SDS011;1721;51.238;9.562;2023-08-01T00:45:44;3.93;;;1.40;;
3415;SDS011;1721;51.238;9.562;2023-08-01T00:48:11;3.95;;;1.30;;
3415;SDS011;1721;51.238;9.562;2023-08-01T00:50:37;3.73;;;1.20;;
3415;SDS011;1721;51.238;9.562;2023-08-01T00:53:03;5.78;;;1.60;;
3415;SDS011;1721;51.238;9.562;2023-08-01T00:55:31;7.32;;;1.70;;
3415;SDS011;1721;51.238;9.562;2023-08-01T00:57:58;5.25;;;1.40;;
3415;SDS011;1721;51.238;9.562;2023-08-01T01:00:24;6.50;;;1.57;;
3415;SDS011;1721;51.238;9.562;2023-08-01T01:02:50;5.70;;;1.40;;
3415;SDS011;1721;51.238;9.562;2023-08-01T01:05:15;4.40;;;1.40;;
3415;SDS011;1721;51.238;9.562;2023-08-01T01:07:41;4.43;;;1.60;;
3415;SDS011;1721;51.238;9.562;2023-08-01T01:10:07;4.05;;;1.38;;
3415;SDS011;1721;51.238;9.562;2023-08-01T01:12:33;4.47;;;1.50;;
3415;SDS011;1721;51.238;9.562;2023-08-01T01:14:58;3.60;;;1.40;;
3415;SDS011;1721;51.238;9.562;2023-08-01T01:17:24;4.83;;;1.90;;
3415;SDS011;1721;51.238;9.562;2023-08-01T01:19:49;4.90;;;1.80;;
3415;SDS011;1721;51.238;9.562;2023-08-01T01:22:15;4.60;;;1.60;;
3415;SDS011;1721;51.238;9.562;2023-08-01T01:24:41;5.50;;;1.48;;
3415;SDS011;1721;51.238;9.562;2023-08-01T01:27:07;4.47;;;1.80;;
3415;SDS011;1721;51.238;9.562;2023-08-01T01:29:34;4.03;;;1.45;;
3415;SDS011;1721;51.238;9.562;2023-08-01T01:32:01;5.00;;;1.70;;
3415;SDS011;1721;51.238;9.562;2023-08-01T01:34:27;4.75;;;1.67;;
3415;SDS011;1721;51.238;9.562;2023-08-01T01:36:53;4.67;;;1.63;;
3415;SDS011;1721;51.238;9.562;2023-08-01T01:39:19;6.50;;;1.80;;
3415;SDS011;1721;51.238;9.562;2023-08-01T01:41:45;4.90;;;1.87;;
3415;SDS011;1721;51.238;9.562;2023-08-01T01:44:11;7.70;;;2.07;;
3415;SDS011;1721;51.238;9.562;2023-08-01T01:46:36;6.50;;;2.33;;
3415;SDS011;1721;51.238;9.562;2023-08-01T01:49:02;6.33;;;1.77;;
3415;SDS011;1721;51.238;9.562;2023-08-01T01:51:28;10.00;;;1.63;;
3415;SDS011;1721;51.238;9.562;2023-08-01T01:53:54;3.40;;;1.20;;
3415;SDS011;1721;51.238;9.562;2023-08-01T01:56:19;4.20;;;1.60;;
3415;SDS011;1721;51.238;9.562;2023-08-01T01:58:45;4.07;;;1.40;;
3415;SDS011;1721;51.238;9.562;2023-08-01T02:01:10;4.50;;;1.67;;
3415;SDS011;1721;51.238;9.562;2023-08-01T02:03:36;3.80;;;1.10;;
3415;SDS011;1721;51.238;9.562;2023-08-01T02:06:02;4.60;;;1.70;;
3415;SDS011;1721;51.238;9.562;2023-08-01T02:08:31;6.05;;;1.20;;
3415;SDS011;1721;51.238;9.562;2023-08-01T02:10:56;3.50;;;0.90;;
3415;SDS011;1721;51.238;9.562;2023-08-01T02:13:27;3.70;;;1.20;;
3415;SDS011;1721;51.238;9.562;2023-08-01T02:15:53;3.13;;;0.90;;
3415;SDS011;1721;51.238;9.562;2023-08-01T02:18:19;2.70;;;0.90;;
3415;SDS011;1721;51.238;9.562;2023-08-01T02:20:45;2.90;;;1.00;;
3415;SDS011;1721;51.238;9.562;2023-08-01T02:23:10;4.50;;;0.90;;
3415;SDS011;1721;51.238;9.562;2023-08-01T02:25:39;4.40;;;1.10;;
3415;SDS011;1721;51.238;9.562;2023-08-01T02:28:05;3.53;;;0.70;;
3415;SDS011;1721;51.238;9.562;2023-08-01T02:30:31;3.53;;;1.15;;
3415;SDS011;1721;51.238;9.562;2023-08-01T02:32:57;2.38;;;0.70;;
3415;SDS011;1721;51.238;9.562;2023-08-01T02:35:23;2.93;;;1.00;;
3415;SDS011;1721;51.238;9.562;2023-08-01T02:37:48;2.90;;;0.80;;
3415;SDS011;1721;51.238;9.562;2023-08-01T02:40:14;2.40;;;0.63;;
3415;SDS011;1721;51.238;9.562;2023-08-01T02:42:40;6.23;;;0.70;;
3415;SDS011;1721;51.238;9.562;2023-08-01T02:45:05;2.50;;;0.70;;
3415;SDS011;1721;51.238;9.562;2023-08-01T02:47:31;5.20;;;0.87;;
3415;SDS011;1721;51.238;9.562;2023-08-01T02:49:56;3.83;;;0.90;;
3415;SDS011;1721;51.238;9.562;2023-08-01T02:52:22;3.07;;;0.63;;
3415;SDS011;1721;51.238;9.562;2023-08-01T02:54:47;4.93;;;0.80;;
3415;SDS011;1721;51.238;9.562;2023-08-01T02:57:13;2.40;;;0.57;;
3415;SDS011;1721;51.238;9.562;2023-08-01T02:59:38;3.83;;;0.73;;
3415;SDS011;1721;51.238;9.562;2023-08-01T03:02:04;2.60;;;0.60;;
3415;SDS011;1721;51.238;9.562;2023-08-01T03:04:29;2.87;;;0.80;;
3415;SDS011;1721;51.238;9.562;2023-08-01T03:06:55;2.10;;;0.50;;
3415;SDS011;1721;51.238;9.562;2023-08-01T03:09:20;2.73;;;0.57;;
3415;SDS011;1721;51.238;9.562;2023-08-01T03:11:46;2.10;;;0.60;;
3415;SDS011;1721;51.238;9.562;2023-08-01T03:14:11;2.20;;;0.60;;
3415;SDS011;1721;51.238;9.562;2023-08-01T03:16:37;2.10;;;0.50;;
3415;SDS011;1721;51.238;9.562;2023-08-01T03:19:02;2.13;;;0.60;;
3415;SDS011;1721;51.238;9.562;2023-08-01T03:21:32;2.95;;;0.60;;
3415;SDS011;1721;51.238;9.562;2023-08-01T03:23:59;5.18;;;0.68;;
3415;SDS011;1721;51.238;9.562;2023-08-01T03:26:25;2.35;;;0.60;;
3415;SDS011;1721;51.238;9.562;2023-08-01T03:28:53;2.30;;;0.60;;
3415;SDS011;1721;51.238;9.562;2023-08-01T03:31:19;2.10;;;0.50;;
3415;SDS011;1721;51.238;9.562;2023-08-01T03:33:45;2.20;;;0.60;;
3415;SDS011;1721;51.238;9.562;2023-08-01T03:36:10;4.10;;;0.60;;
3415;SDS011;1721;51.238;9.562;2023-08-01T03:38:36;6.53;;;0.60;;
3415;SDS011;1721;51.238;9.562;2023-08-01T03:41:01;2.63;;;0.80;;
3415;SDS011;1721;51.238;9.562;2023-08-01T03:43:29;2.28;;;0.60;;
3415;SDS011;1721;51.238;9.562;2023-08-01T03:45:54;4.23;;;0.50;;
3415;SDS011;1721;51.238;9.562;2023-08-01T03:48:20;1.90;;;0.50;;
3415;SDS011;1721;51.238;9.562;2023-08-01T03:50:45;2.20;;;0.50;;
3415;SDS011;1721;51.238;9.562;2023-08-01T03:53:11;2.10;;;0.60;;
3415;SDS011;1721;51.238;9.562;2023-08-01T03:55:36;2.60;;;0.60;;
3415;SDS011;1721;51.238;9.562;2023-08-01T03:58:02;1.90;;;0.53;;
3415;SDS011;1721;51.238;9.562;2023-08-01T04:00:28;4.03;;;0.70;;
3415;SDS011;1721;51.238;9.562;2023-08-01T04:02:57;2.63;;;0.63;;
3415;SDS011;1721;51.238;9.562;2023-08-01T04:05:23;2.05;;;0.55;;
3415;SDS011;1721;51.238;9.562;2023-08-01T04:07:49;3.03;;;0.63;;
3415;SDS011;1721;51.238;9.562;2023-08-01T04:10:14;2.67;;;0.70;;
3415;SDS011;1721;51.238;9.562;2023-08-01T04:12:40;2.20;;;0.60;;
3415;SDS011;1721;51.238;9.562;2023-08-01T04:15:07;2.38;;;0.50;;
3415;SDS011;1721;51.238;9.562;2023-08-01T04:17:33;3.78;;;0.60;;
3415;SDS011;1721;51.238;9.562;2023-08-01T04:19:59;2.63;;;0.70;;
3415;SDS011;1721;51.238;9.562;2023-08-01T04:22:24;1.97;;;0.57;;
3415;SDS011;1721;51.238;9.562;2023-08-01T04:24:50;1.90;;;0.50;;
3415;SDS011;1721;51.238;9.562;2023-08-01T04:27:15;2.00;;;0.60;;
3415;SDS011;1721;51.238;9.562;2023-08-01T04:29:41;2.10;;;0.50;;
3415;SDS011;1721;51.238;9.562;2023-08-01T04:32:07;2.00;;;0.50;;
3415;SDS011;1721;51.238;9.562;2023-08-01T04:34:32;2.20;;;0.50;;
3415;SDS011;1721;51.238;9.562;2023-08-01T04:36:58;2.47;;;0.60;;
3415;SDS011;1721;51.238;9.562;2023-08-01T04:39:24;1.90;;;0.50;;
3415;SDS011;1721;51.238;9.562;2023-08-01T04:41:49;2.20;;;0.50;;
3415;SDS011;1721;51.238;9.562;2023-08-01T04:44:15;2.10;;;0.60;;
3415;SDS011;1721;51.238;9.562;2023-08-01T04:46:41;2.10;;;0.57;;
3415;SDS011;1721;51.238;9.562;2023-08-01T04:49:07;2.10;;;0.60;;
3415;SDS011;1721;51.238;9.562;2023-08-01T04:51:32;2.10;;;0.60;;
3415;SDS011;1721;51.238;9.562;2023-08-01T04:53:58;2.90;;;0.67;;
3415;SDS011;1721;51.238;9.562;2023-08-01T04:56:24;2.47;;;0.60;;
3415;SDS011;1721;51.238;9.562;2023-08-01T04:58:49;2.20;;;0.60;;
3415;SDS011;1721;51.238;9.562;2023-08-01T05:01:15;2.70;;;0.73;;
3415;SDS011;1721;51.238;9.562;2023-08-01T05:03:40;2.67;;;0.70;;
3415;SDS011;1721;51.238;9.562;2023-08-01T05:06:06;2.20;;;0.60;;
3415;SDS011;1721;51.238;9.562;2023-08-01T05:08:31;4.00;;;0.50;;
3415;SDS011;1721;51.238;9.562;2023-08-01T05:10:57;2.10;;;0.60;;
3415;SDS011;1721;51.238;9.562;2023-08-01T05:13:23;2.20;;;0.60;;
3415;SDS011;1721;51.238;9.562;2023-08-01T05:15:48;2.10;;;0.50;;
3415;SDS011;1721;51.238;9.562;2023-08-01T05:18:15;2.00;;;0.50;;
3415;SDS011;1721;51.238;9.562;2023-08-01T05:20:41;2.03;;;0.50;;
3415;SDS011;1721;51.238;9.562;2023-08-01T05:23:07;2.20;;;0.50;;
3415;SDS011;1721;51.238;9.562;2023-08-01T05:25:33;2.40;;;0.60;;
3415;SDS011;1721;51.238;9.562;2023-08-01T05:27:58;2.03;;;0.57;;
3415;SDS011;1721;51.238;9.562;2023-08-01T05:30:24;1.83;;;0.50;;
3415;SDS011;1721;51.238;9.562;2023-08-01T05:32:50;1.90;;;0.50;;
3415;SDS011;1721;51.238;9.562;2023-08-01T05:35:16;2.40;;;0.60;;
3415;SDS011;1721;51.238;9.562;2023-08-01T05:37:42;2.20;;;0.55;;
3415;SDS011;1721;51.238;9.562;2023-08-01T05:40:08;2.10;;;0.60;;
3415;SDS011;1721;51.238;9.562;2023-08-01T05:42:34;2.15;;;0.50;;
3415;SDS011;1721;51.238;9.562;2023-08-01T05:44:59;3.03;;;0.60;;
3415;SDS011;1721;51.238;9.562;2023-08-01T05:47:25;2.17;;;0.60;;
3415;SDS011;1721;51.238;9.562;2023-08-01T05:49:51;2.20;;;0.60;;
3415;SDS011;1721;51.238;9.562;2023-08-01T05:52:16;3.50;;;0.80;;
3415;SDS011;1721;51.238;9.562;2023-08-01T05:54:42;2.10;;;0.50;;
3415;SDS011;1721;51.238;9.562;2023-08-01T05:57:07;2.07;;;0.60;;
3415;SDS011;1721;51.238;9.562;2023-08-01T05:59:33;2.80;;;0.60;;
3415;SDS011;1721;51.238;9.562;2023-08-01T06:01:59;2.40;;;0.53;;
3415;SDS011;1721;51.238;9.562;2023-08-01T06:04:24;2.13;;;0.60;;
3415;SDS011;1721;51.238;9.562;2023-08-01T06:06:50;2.20;;;0.60;;
3415;SDS011;1721;51.238;9.562;2023-08-01T06:09:15;2.00;;;0.50;;
3415;SDS011;1721;51.238;9.562;2023-08-01T06:11:41;2.90;;;0.60;;
3415;SDS011;1721;51.238;9.562;2023-08-01T06:14:07;2.33;;;0.60;;
3415;SDS011;1721;51.238;9.562;2023-08-01T06:16:32;2.00;;;0.50;;
3415;SDS011;1721;51.238;9.562;2023-08-01T06:18:58;2.10;;;0.60;;
3415;SDS011;1721;51.238;9.562;2023-08-01T06:21:23;2.10;;;0.50;;
3415;SDS011;1721;51.238;9.562;2023-08-01T06:23:49;2.50;;;0.60;;
3415;SDS011;1721;51.238;9.562;2023-08-01T06:26:15;1.90;;;0.50;;
3415;SDS011;1721;51.238;9.562;2023-08-01T06:28:40;2.10;;;0.50;;
3415;SDS011;1721;51.238;9.562;2023-08-01T06:31:06;2.40;;;0.57;;
3415;SDS011;1721;51.238;9.562;2023-08-01T06:33:32;2.60;;;0.67;;
3415;SDS011;1721;51.238;9.562;2023-08-01T06:35:57;2.60;;;0.70;;
3415;SDS011;1721;51.238;9.562;2023-08-01T06:38:23;3.80;;;0.80;;
3415;SDS011;1721;51.238;9.562;2023-08-01T06:40:48;3.80;;;0.60;;
3415;SDS011;1721;51.238;9.562;2023-08-01T06:43:14;3.60;;;0.77;;
3415;SDS011;1721;51.238;9.562;2023-08-01T06:45:39;2.43;;;0.80;;
3415;SDS011;1721;51.238;9.562;2023-08-01T06:48:05;2.87;;;0.73;;
3415;SDS011;1721;51.238;9.562;2023-08-01T06:50:31;3.03;;;1.10;;
3415;SDS011;1721;51.238;9.562;2023-08-01T06:52:56;9.03;;;0.80;;
3415;SDS011;1721;51.238;9.562;2023-08-01T06:55:22;3.30;;;0.90;;
3415;SDS011;1721;51.238;9.562;2023-08-01T06:57:47;3.40;;;1.00;;
3415;SDS011;1721;51.238;9.562;2023-08-01T07:00:13;3.40;;;1.10;;
3415;SDS011;1721;51.238;9.562;2023-08-01T07:02:38;5.40;;;1.43;;
3415;SDS011;1721;51.238;9.562;2023-08-01T07:05:04;3.10;;;1.10;;
3415;SDS011;1721;51.238;9.562;2023-08-01T07:07:30;3.80;;;1.40;;
3415;SDS011;1721;51.238;9.562;2023-08-01T07:09:55;4.83;;;1.77;;
3415;SDS011;1721;51.238;9.562;2023-08-01T07:12:21;4.33;;;1.57;;
3415;SDS011;1721;51.238;9.562;2023-08-01T07:14:47;4.70;;;1.77;;
3415;SDS011;1721;51.238;9.562;2023-08-01T07:17:12;4.23;;;1.37;;
3415;SDS011;1721;51.238;9.562;2023-08-01T07:19:38;5.10;;;1.73;;
3415;SDS011;1721;51.238;9.562;2023-08-01T07:22:03;4.27;;;2.00;;
3415;SDS011;1721;51.238;9.562;2023-08-01T07:24:29;4.77;;;2.03;;
3415;SDS011;1721;51.238;9.562;2023-08-01T07:26:54;4.73;;;1.93;;
3415;SDS011;1721;51.238;9.562;2023-08-01T07:29:20;5.77;;;2.20;;
3415;SDS011;1721;51.238;9.562;2023-08-01T07:31:45;5.47;;;2.47;;
3415;SDS011;1721;51.238;9.562;2023-08-01T07:34:11;6.37;;;2.70;;
3415;SDS011;1721;51.238;9.562;2023-08-01T07:36:37;7.17;;;3.60;;
3415;SDS011;1721;51.238;9.562;2023-08-01T07:39:02;7.43;;;3.50;;
3415;SDS011;1721;51.238;9.562;2023-08-01T07:41:28;9.80;;;3.67;;
3415;SDS011;1721;51.238;9.562;2023-08-01T07:43:54;5.80;;;2.37;;
3415;SDS011;1721;51.238;9.562;2023-08-01T07:46:20;6.47;;;2.90;;
3415;SDS011;1721;51.238;9.562;2023-08-01T07:48:45;8.87;;;3.53;;
3415;SDS011;1721;51.238;9.562;2023-08-01T07:51:11;6.27;;;2.93;;
3415;SDS011;1721;51.238;9.562;2023-08-01T07:53:36;8.03;;;3.33;;
3415;SDS011;1721;51.238;9.562;2023-08-01T07:56:02;7.73;;;3.80;;
3415;SDS011;1721;51.238;9.562;2023-08-01T07:58:28;6.27;;;2.83;;
3415;SDS011;1721;51.238;9.562;2023-08-01T08:00:54;6.63;;;2.88;;
3415;SDS011;1721;51.238;9.562;2023-08-01T08:03:20;7.43;;;3.10;;
3415;SDS011;1721;51.238;9.562;2023-08-01T08:05:48;7.97;;;3.55;;
3415;SDS011;1721;51.238;9.562;2023-08-01T08:08:14;6.80;;;2.85;;
3415;SDS011;1721;51.238;9.562;2023-08-01T08:10:40;6.13;;;2.70;;
3415;SDS011;1721;51.238;9.562;2023-08-01T08:13:05;6.87;;;2.90;;
3415;SDS011;1721;51.238;9.562;2023-08-01T08:15:31;7.00;;;3.13;;
3415;SDS011;1721;51.238;9.562;2023-08-01T08:17:59;8.15;;;3.65;;
3415;SDS011;1721;51.238;9.562;2023-08-01T08:20:26;8.27;;;3.67;;
3415;SDS011;1721;51.238;9.562;2023-08-01T08:22:51;7.40;;;3.33;;
3415;SDS011;1721;51.238;9.562;2023-08-01T08:25:17;8.33;;;4.07;;
3415;SDS011;1721;51.238;9.562;2023-08-01T08:27:42;10.17;;;3.73;;
3415;SDS011;1721;51.238;9.562;2023-08-01T08:30:08;6.40;;;3.20;;
3415;SDS011;1721;51.238;9.562;2023-08-01T08:32:35;7.27;;;3.50;;
3415;SDS011;1721;51.238;9.562;2023-08-01T08:35:00;10.10;;;3.60;;
3415;SDS011;1721;51.238;9.562;2023-08-01T08:37:26;8.50;;;4.03;;
3415;SDS011;1721;51.238;9.562;2023-08-01T08:39:51;8.27;;;3.60;;
3415;SDS011;1721;51.238;9.562;2023-08-01T08:42:20;7.57;;;3.67;;
3415;SDS011;1721;51.238;9.562;2023-08-01T08:44:45;10.17;;;4.30;;
3415;SDS011;1721;51.238;9.562;2023-08-01T08:47:15;8.20;;;3.33;;
3415;SDS011;1721;51.238;9.562;2023-08-01T08:49:43;11.97;;;3.50;;
3415;SDS011;1721;51.238;9.562;2023-08-01T08:52:10;9.20;;;3.50;;
3415;SDS011;1721;51.238;9.562;2023-08-01T08:54:36;12.37;;;3.00;;
3415;SDS011;1721;51.238;9.562;2023-08-01T08:57:04;9.43;;;3.07;;
3415;SDS011;1721;51.238;9.562;2023-08-01T08:59:31;9.53;;;3.00;;
3415;SDS011;1721;51.238;9.562;2023-08-01T09:01:58;7.80;;;2.90;;
3415;SDS011;1721;51.238;9.562;2023-08-01T09:04:26;6.27;;;2.97;;
3415;SDS011;1721;51.238;9.562;2023-08-01T09:06:53;6.07;;;2.70;;
3415;SDS011;1721;51.238;9.562;2023-08-01T09:09:23;8.23;;;3.57;;
3415;SDS011;1721;51.238;9.562;2023-08-01T09:11:51;6.40;;;2.57;;
3415;SDS011;1721;51.238;9.562;2023-08-01T09:14:18;5.33;;;2.40;;
3415;SDS011;1721;51.238;9.562;2023-08-01T09:16:45;5.17;;;2.33;;
3415;SDS011;1721;51.238;9.562;2023-08-01T09:19:16;6.30;;;2.17;;
3415;SDS011;1721;51.238;9.562;2023-08-01T09:21:46;6.50;;;2.83;;
3415;SDS011;1721;51.238;9.562;2023-08-01T09:24:13;10.07;;;2.87;;
3415;SDS011;1721;51.238;9.562;2023-08-01T09:26:40;6.53;;;2.50;;
3415;SDS011;1721;51.238;9.562;2023-08-01T09:29:06;5.07;;;2.40;;
3415;SDS011;1721;51.238;9.562;2023-08-01T09:31:33;9.37;;;2.67;;
3415;SDS011;1721;51.238;9.562;2023-08-01T09:34:00;5.70;;;2.90;;
3415;SDS011;1721;51.238;9.562;2023-08-01T09:36:27;6.93;;;2.30;;
3415;SDS011;1721;51.238;9.562;2023-08-01T09:38:57;6.87;;;2.50;;
3415;SDS011;1721;51.238;9.562;2023-08-01T09:41:23;5.77;;;2.13;;
3415;SDS011;1721;51.238;9.562;2023-08-01T09:43:49;9.47;;;2.60;;
3415;SDS011;1721;51.238;9.562;2023-08-01T09:46:15;11.20;;;2.60;;
3415;SDS011;1721;51.238;9.562;2023-08-01T09:48:41;6.03;;;2.70;;
3415;SDS011;1721;51.238;9.562;2023-08-01T09:51:10;7.97;;;2.57;;
3415;SDS011;1721;51.238;9.562;2023-08-01T09:56:19;6.67;;;2.30;;
3415;SDS011;1721;51.238;9.562;2023-08-01T09:58:49;7.73;;;2.97;;
3415;SDS011;1721;51.238;9.562;2023-08-01T10:01:24;15.13;;;3.27;;
3415;SDS011;1721;51.238;9.562;2023-08-01T10:03:51;8.40;;;3.00;;
3415;SDS011;1721;51.238;9.562;2023-08-01T10:06:22;6.00;;;2.90;;
3415;SDS011;1721;51.238;9.562;2023-08-01T10:08:49;7.30;;;2.37;;
3415;SDS011;1721;51.238;9.562;2023-08-01T10:11:17;8.97;;;2.50;;
3415;SDS011;1721;51.238;9.562;2023-08-01T10:13:44;6.70;;;2.63;;
3415;SDS011;1721;51.238;9.562;2023-08-01T10:16:11;8.20;;;2.40;;
3415;SDS011;1721;51.238;9.562;2023-08-01T10:18:38;7.80;;;1.90;;
3415;SDS011;1721;51.238;9.562;2023-08-01T10:21:05;6.10;;;2.47;;
3415;SDS011;1721;51.238;9.562;2023-08-01T10:23:34;7.50;;;2.37;;
3415;SDS011;1721;51.238;9.562;2023-08-01T10:26:01;5.20;;;1.87;;
3415;SDS011;1721;51.238;9.562;2023-08-01T10:28:35;5.87;;;2.17;;
3415;SDS011;1721;51.238;9.562;2023-08-01T10:33:34;4.60;;;1.50;;
3415;SDS011;1721;51.238;9.562;2023-08-01T10:36:00;8.03;;;1.70;;
3415;SDS011;1721;51.238;9.562;2023-08-01T10:38:43;5.33;;;1.80;;
3415;SDS011;1721;51.238;9.562;2023-08-01T10:41:18;7.07;;;2.30;;
3415;SDS011;1721;51.238;9.562;2023-08-01T10:49:17;5.40;;;1.50;;
3415;SDS011;1721;51.238;9.562;2023-08-01T10:51:44;4.93;;;1.90;;
3415;SDS011;1721;51.238;9.562;2023-08-01T10:56:46;6.83;;;2.00;;
3415;SDS011;1721;51.238;9.562;2023-08-01T10:59:13;6.33;;;1.70;;
3415;SDS011;1721;51.238;9.562;2023-08-01T11:01:43;6.20;;;2.47;;
3415;SDS011;1721;51.238;9.562;2023-08-01T11:04:16;6.10;;;2.07;;
3415;SDS011;1721;51.238;9.562;2023-08-01T11:06:46;6.20;;;2.03;;
3415;SDS011;1721;51.238;9.562;2023-08-01T11:09:20;4.50;;;1.80;;
3415;SDS011;1721;51.238;9.562;2023-08-01T11:11:47;8.50;;;2.37;;
3415;SDS011;1721;51.238;9.562;2023-08-01T11:14:15;9.30;;;2.00;;
3415;SDS011;1721;51.238;9.562;2023-08-01T11:16:42;6.43;;;1.77;;
3415;SDS011;1721;51.238;9.562;2023-08-01T11:22:08;5.63;;;1.83;;
3415;SDS011;1721;51.238;9.562;2023-08-01T11:24:34;6.67;;;2.27;;
3415;SDS011;1721;51.238;9.562;2023-08-01T11:27:00;7.17;;;2.07;;
3415;SDS011;1721;51.238;9.562;2023-08-01T11:29:25;4.37;;;1.63;;
3415;SDS011;1721;51.238;9.562;2023-08-01T11:31:52;4.20;;;1.40;;
3415;SDS011;1721;51.238;9.562;2023-08-01T11:34:18;3.87;;;1.30;;
3415;SDS011;1721;51.238;9.562;2023-08-01T11:36:44;3.60;;;1.30;;
3415;SDS011;1721;51.238;9.562;2023-08-01T11:39:11;4.90;;;1.80;;
3415;SDS011;1721;51.238;9.562;2023-08-01T11:41:37;5.90;;;1.60;;
3415;SDS011;1721;51.238;9.562;2023-08-01T11:44:03;6.10;;;1.87;;
3415;SDS011;1721;51.238;9.562;2023-08-01T11:46:33;6.30;;;2.20;;
3415;SDS011;1721;51.238;9.562;2023-08-01T11:49:00;6.40;;;1.83;;
3415;SDS011;1721;51.238;9.562;2023-08-01T11:51:27;4.50;;;1.60;;
3415;SDS011;1721;51.238;9.562;2023-08-01T11:53:59;6.80;;;1.80;;
3415;SDS011;1721;51.238;9.562;2023-08-01T11:56:26;9.70;;;1.80;;
3415;SDS011;1721;51.238;9.562;2023-08-01T11:58:52;5.33;;;2.30;;
3415;SDS011;1721;51.238;9.562;2023-08-01T12:01:17;8.43;;;2.00;;
3415;SDS011;1721;51.238;9.562;2023-08-01T12:03:47;5.47;;;2.00;;
3415;SDS011;1721;51.238;9.562;2023-08-01T12:06:14;5.20;;;1.67;;
3415;SDS011;1721;51.238;9.562;2023-08-01T12:08:45;5.80;;;1.83;;
3415;SDS011;1721;51.238;9.562;2023-08-01T12:11:21;5.40;;;1.50;;
3415;SDS011;1721;51.238;9.562;2023-08-01T12:16:37;6.77;;;1.43;;
3415;SDS011;1721;51.238;9.562;2023-08-01T12:19:05;5.23;;;1.20;;
3415;SDS011;1721;51.238;9.562;2023-08-01T12:21:31;4.87;;;1.30;;
3415;SDS011;1721;51.238;9.562;2023-08-01T12:23:58;4.10;;;1.40;;
3415;SDS011;1721;51.238;9.562;2023-08-01T12:26:24;7.20;;;1.80;;
3415;SDS011;1721;51.238;9.562;2023-08-01T12:28:50;6.33;;;1.40;;
3415;SDS011;1721;51.238;9.562;2023-08-01T12:31:16;5.20;;;1.73;;
3415;SDS011;1721;51.238;9.562;2023-08-01T12:33:43;9.10;;;1.43;;
3415;SDS011;1721;51.238;9.562;2023-08-01T12:36:09;5.77;;;1.63;;
3415;SDS011;1721;51.238;9.562;2023-08-01T12:38:35;5.23;;;1.33;;
3415;SDS011;1721;51.238;9.562;2023-08-01T12:41:01;3.50;;;1.13;;
3415;SDS011;1721;51.238;9.562;2023-08-01T12:43:26;6.80;;;1.93;;
3415;SDS011;1721;51.238;9.562;2023-08-01T12:45:52;10.70;;;1.80;;
3415;SDS011;1721;51.238;9.562;2023-08-01T12:48:18;4.63;;;1.90;;
3415;SDS011;1721;51.238;9.562;2023-08-01T12:50:44;4.93;;;1.63;;
3415;SDS011;1721;51.238;9.562;2023-08-01T12:53:11;7.53;;;2.30;;
3415;SDS011;1721;51.238;9.562;2023-08-01T12:55:37;5.17;;;1.80;;
3415;SDS011;1721;51.238;9.562;2023-08-01T12:58:03;5.20;;;1.70;;
3415;SDS011;1721;51.238;9.562;2023-08-01T13:00:31;6.63;;;1.70;;
3415;SDS011;1721;51.238;9.562;2023-08-01T13:02:58;4.70;;;1.63;;
3415;SDS011;1721;51.238;9.562;2023-08-01T13:05:25;8.77;;;2.00;;
3415;SDS011;1721;51.238;9.562;2023-08-01T13:07:53;6.23;;;1.70;;
3415;SDS011;1721;51.238;9.562;2023-08-01T13:10:19;5.97;;;1.97;;
3415;SDS011;1721;51.238;9.562;2023-08-01T13:12:46;5.77;;;2.10;;
3415;SDS011;1721;51.238;9.562;2023-08-01T13:15:21;3.97;;;1.57;;
3415;SDS011;1721;51.238;9.562;2023-08-01T13:17:47;4.00;;;1.50;;
3415;SDS011;1721;51.238;9.562;2023-08-01T13:20:12;4.10;;;1.47;;
3415;SDS011;1721;51.238;9.562;2023-08-01T13:22:38;5.00;;;1.30;;
3415;SDS011;1721;51.238;9.562;2023-08-01T13:25:04;6.63;;;1.70;;
3415;SDS011;1721;51.238;9.562;2023-08-01T13:27:31;3.43;;;1.03;;
3415;SDS011;1721;51.238;9.562;2023-08-01T13:29:58;5.23;;;1.60;;
3415;SDS011;1721;51.238;9.562;2023-08-01T13:32:24;4.13;;;1.47;;
3415;SDS011;1721;51.238;9.562;2023-08-01T13:34:50;5.00;;;1.60;;
3415;SDS011;1721;51.238;9.562;2023-08-01T13:37:15;4.03;;;1.20;;
3415;SDS011;1721;51.238;9.562;2023-08-01T13:39:41;6.40;;;1.77;;
3415;SDS011;1721;51.238;9.562;2023-08-01T13:42:06;4.50;;;1.60;;
3415;SDS011;1721;51.238;9.562;2023-08-01T13:44:32;5.97;;;1.83;;
3415;SDS011;1721;51.238;9.562;2023-08-01T13:46:58;4.53;;;1.63;;
3415;SDS011;1721;51.238;9.562;2023-08-01T13:49:23;3.93;;;1.30;;
3415;SDS011;1721;51.238;9.562;2023-08-01T13:51:49;4.60;;;1.50;;
3415;SDS011;1721;51.238;9.562;2023-08-01T13:54:14;8.23;;;1.57;;
3415;SDS011;1721;51.238;9.562;2023-08-01T13:56:40;3.93;;;1.50;;
3415;SDS011;1721;51.238;9.562;2023-08-01T13:59:06;4.47;;;1.40;;
3415;SDS011;1721;51.238;9.562;2023-08-01T14:01:31;4.13;;;1.40;;
3415;SDS011;1721;51.238;9.562;2023-08-01T14:03:57;7.07;;;1.90;;
3415;SDS011;1721;51.238;9.562;2023-08-01T14:06:23;4.53;;;1.40;;
3415;SDS011;1721;51.238;9.562;2023-08-01T14:08:48;5.00;;;1.10;;
3415;SDS011;1721;51.238;9.562;2023-08-01T14:11:14;4.57;;;1.30;;
3415;SDS011;1721;51.238;9.562;2023-08-01T14:13:39;6.40;;;2.07;;
3415;SDS011;1721;51.238;9.562;2023-08-01T14:16:05;5.90;;;1.77;;
3415;SDS011;1721;51.238;9.562;2023-08-01T14:18:31;5.03;;;1.50;;
3415;SDS011;1721;51.238;9.562;2023-08-01T14:20:56;3.77;;;1.53;;
3415;SDS011;1721;51.238;9.562;2023-08-01T14:23:22;7.90;;;1.50;;
3415;SDS011;1721;51.238;9.562;2023-08-01T14:25:48;5.70;;;1.90;;
3415;SDS011;1721;51.238;9.562;2023-08-01T14:28:13;4.77;;;1.37;;
3415;SDS011;1721;51.238;9.562;2023-08-01T14:30:39;7.40;;;1.70;;
3415;SDS011;1721;51.238;9.562;2023-08-01T14:33:06;5.03;;;1.80;;
3415;SDS011;1721;51.238;9.562;2023-08-01T14:35:33;8.93;;;1.73;;
3415;SDS011;1721;51.238;9.562;2023-08-01T14:38:00;5.70;;;1.30;;
3415;SDS011;1721;51.238;9.562;2023-08-01T14:40:26;3.70;;;1.23;;
3415;SDS011;1721;51.238;9.562;2023-08-01T14:42:52;3.77;;;1.30;;
3415;SDS011;1721;51.238;9.562;2023-08-01T14:45:17;4.70;;;1.10;;
3415;SDS011;1721;51.238;9.562;2023-08-01T14:47:43;5.00;;;1.60;;
3415;SDS011;1721;51.238;9.562;2023-08-01T14:50:10;7.73;;;1.77;;
3415;SDS011;1721;51.238;9.562;2023-08-01T14:52:36;4.13;;;1.30;;
3415;SDS011;1721;51.238;9.562;2023-08-01T14:55:02;3.97;;;1.63;;
3415;SDS011;1721;51.238;9.562;2023-08-01T14:57:28;4.20;;;1.50;;
3415;SDS011;1721;51.238;9.562;2023-08-01T14:59:53;5.00;;;1.60;;
3415;SDS011;1721;51.238;9.562;2023-08-01T15:02:19;9.57;;;1.70;;
3415;SDS011;1721;51.238;9.562;2023-08-01T15:04:46;6.53;;;1.87;;
3415;SDS011;1721;51.238;9.562;2023-08-01T15:07:15;7.03;;;1.50;;
3415;SDS011;1721;51.238;9.562;2023-08-01T15:09:43;6.33;;;1.10;;
3415;SDS011;1721;51.238;9.562;2023-08-01T15:12:09;3.80;;;1.20;;
3415;SDS011;1721;51.238;9.562;2023-08-01T15:14:36;5.00;;;1.20;;
3415;SDS011;1721;51.238;9.562;2023-08-01T15:17:03;8.43;;;1.57;;
3415;SDS011;1721;51.238;9.562;2023-08-01T15:19:29;5.70;;;1.20;;
3415;SDS011;1721;51.238;9.562;2023-08-01T15:21:55;3.10;;;0.90;;
3415;SDS011;1721;51.238;9.562;2023-08-01T15:24:20;3.97;;;0.90;;
3415;SDS011;1721;51.238;9.562;2023-08-01T15:26:46;5.13;;;1.40;;
3415;SDS011;1721;51.238;9.562;2023-08-01T15:29:12;3.87;;;1.30;;